Time;durP1;ratioP1;P1;durP2;ratioP2;P2;SDS_P1;SDS_P2;PMS_P1;PMS_P2;Temp;Humidity;BMP_temperature;BMP_pressure;BME280_temperature;BME280_humidity;BME280_pressure;Samples;Min_cycle;Max_cycle;Signal;HPM_P1;HPM_P2
2022/11/17 00:00:32;;;;;;;9.57;4.95;;;;;;;-0.44;100.00;93942.84;4973746;28;20101;-71
2022/11/17 00:03:02;;;;;;;10.35;5.80;;;;;;;-0.54;100.00;93935.72;4973332;28;20143;-71
2022/11/17 00:05:28;;;;;;;11.50;5.93;;;;;;;-0.54;100.00;93935.72;4972104;28;20149;-71
2022/11/17 00:07:54;;;;;;;18.17;6.68;;;;;;;-0.54;100.00;93935.72;4959346;28;20102;-72
2022/11/17 00:10:19;;;;;;;18.35;7.68;;;;;;;-0.48;100.00;93944.34;4972607;28;20054;-71
2022/11/17 00:15:29;;;;;;;21.77;6.70;;;;;;;-0.39;100.00;93942.13;4973132;28;20113;-71
2022/11/17 00:23:25;;;;;;;12.23;6.10;;;;;;;-0.24;100.00;93929.38;4955338;28;20090;-71
2022/11/17 00:25:50;;;;;;;13.00;5.65;;;;;;;-0.27;100.00;93931.69;4954586;28;20043;-71
2022/11/17 00:28:16;;;;;;;17.30;7.15;;;;;;;-0.28;100.00;93928.31;4973936;28;20043;-71
2022/11/17 00:36:10;;;;;;;13.52;6.45;;;;;;;-0.32;100.00;93922.03;4973965;28;20199;-72
2022/11/17 00:38:35;;;;;;;13.18;5.97;;;;;;;-0.31;100.00;93923.63;4974536;28;20118;-71
2022/11/17 00:41:01;;;;;;;13.40;5.60;;;;;;;-0.24;100.00;93924.22;4967830;28;20051;-72
2022/11/17 00:43:26;;;;;;;13.77;5.90;;;;;;;-0.29;100.00;93926.72;4962509;28;20035;-69
2022/11/17 00:45:52;;;;;;;16.13;6.60;;;;;;;-0.20;100.00;93929.72;4998314;28;20039;-69
2022/11/17 00:48:17;;;;;;;15.88;6.88;;;;;;;-0.20;100.00;93930.47;4997962;28;20022;-69
2022/11/17 00:50:43;;;;;;;9.95;5.40;;;;;;;-0.12;100.00;93920.75;4997490;28;20099;-68
2022/11/17 00:53:08;;;;;;;15.07;6.35;;;;;;;-0.10;100.00;93918.69;4998642;28;20098;-68
2022/11/17 00:55:34;;;;;;;13.88;6.30;;;;;;;-0.02;100.00;93915.69;4997179;28;20050;-68
2022/11/17 00:57:59;;;;;;;19.25;8.00;;;;;;;0.02;100.00;93916.75;4998328;28;20115;-68
2022/11/17 01:00:25;;;;;;;20.80;8.70;;;;;;;0.11;100.00;93919.69;4997748;28;20039;-69
2022/11/17 01:02:51;;;;;;;17.08;7.88;;;;;;;0.10;100.00;93924.09;4997200;28;20115;-70
2022/11/17 01:05:16;;;;;;;15.63;6.50;;;;;;;0.13;100.00;93928.78;4996992;28;20074;-68
2022/11/17 01:07:42;;;;;;;16.45;6.80;;;;;;;0.14;100.00;93908.84;4995522;28;20043;-68
2022/11/17 01:10:08;;;;;;;12.40;5.68;;;;;;;0.23;100.00;93916.97;4991054;28;20110;-69
2022/11/17 01:12:33;;;;;;;13.00;5.57;;;;;;;0.23;100.00;93916.97;4971991;28;20408;-71
2022/11/17 01:14:59;;;;;;;12.13;5.20;;;;;;;0.32;100.00;93915.53;4971853;28;20042;-70
2022/11/17 01:17:24;;;;;;;9.82;5.45;;;;;;;0.39;100.00;93916.09;4971969;28;20058;-69
2022/11/17 01:19:50;;;;;;;16.70;6.55;;;;;;;0.43;100.00;93917.19;4969692;28;20050;-71
2022/11/17 01:22:16;;;;;;;11.38;5.80;;;;;;;0.43;100.00;93909.41;4965908;28;20507;-71
2022/11/17 01:24:42;;;;;;;12.52;5.57;;;;;;;0.48;100.00;93904.28;4971081;28;20125;-72
2022/11/17 01:27:08;;;;;;;11.65;5.40;;;;;;;0.55;100.00;93911.06;4964067;28;20093;-72
2022/11/17 01:29:33;;;;;;;13.05;5.32;;;;;;;0.54;100.00;93912.09;4971990;28;20588;-72
2022/11/17 01:31:59;;;;;;;9.48;5.10;;;;;;;0.64;100.00;93914.78;4965289;28;20042;-71
2022/11/17 01:34:24;;;;;;;10.30;5.15;;;;;;;0.66;100.00;93910.13;4969952;28;20049;-71
2022/11/17 01:39:34;;;;;;;14.03;5.30;;;;;;;0.69;100.00;93925.19;4971743;28;20500;-70
2022/11/17 01:42:12;;;;;;;10.80;5.38;;;;;;;0.68;100.00;93933.97;4971203;28;20043;-70
2022/11/17 01:45:00;;;;;;;12.68;5.90;;;;;;;0.76;100.00;93930.94;4965018;28;20046;-70
2022/11/17 01:47:52;;;;;;;11.80;5.93;;;;;;;0.85;100.00;93929.44;4965497;28;20043;-70
2022/11/17 01:50:30;;;;;;;10.75;6.00;;;;;;;0.79;100.00;93920.09;4969348;28;20093;-69
2022/11/17 01:52:58;;;;;;;11.40;4.95;;;;;;;0.91;100.00;93911.38;4966023;28;20039;-70
2022/11/17 01:55:30;;;;;;;12.25;5.30;;;;;;;0.94;100.00;93905.69;4964801;28;20039;-70
2022/11/17 01:58:06;;;;;;;11.70;4.90;;;;;;;0.96;100.00;93909.59;4969873;28;20050;-71
2022/11/17 02:00:32;;;;;;;8.70;4.93;;;;;;;1.01;100.00;93895.91;4970981;28;20046;-70
2022/11/17 02:02:59;;;;;;;11.40;5.03;;;;;;;1.03;100.00;93893.81;4969207;28;20043;-70
2022/11/17 02:05:41;;;;;;;10.45;4.95;;;;;;;1.17;100.00;93887.19;4968944;28;20053;-70
2022/11/17 02:08:08;;;;;;;11.57;5.57;;;;;;;1.01;100.00;93880.34;4971290;28;20110;-70
2022/11/17 02:10:34;;;;;;;11.23;5.18;;;;;;;1.06;100.00;93882.19;4971844;28;20038;-71
2022/11/17 02:13:01;;;;;;;12.90;5.53;;;;;;;1.14;100.00;93894.69;4967797;28;20097;-71
2022/11/17 02:15:28;;;;;;;12.18;5.78;;;;;;;1.23;100.00;93892.41;4970418;28;20051;-71
2022/11/17 02:17:56;;;;;;;9.88;5.10;;;;;;;1.35;100.00;93890.38;4970218;28;20043;-69
2022/11/17 02:20:49;;;;;;;12.77;5.50;;;;;;;1.31;100.00;93868.63;4966949;28;20515;-69
2022/11/17 02:23:28;;;;;;;11.77;5.35;;;;;;;1.45;100.00;93859.34;4958712;28;20035;-69
2022/11/17 02:26:12;;;;;;;8.65;4.60;;;;;;;1.64;100.00;93877.03;4969591;28;20061;-71
2022/11/17 02:28:54;;;;;;;12.47;5.20;;;;;;;1.59;100.00;93864.06;4970047;28;20038;-69
2022/11/17 02:31:33;;;;;;;11.80;5.57;;;;;;;1.62;100.00;93858.38;4971065;28;20054;-69
2022/11/17 02:33:59;;;;;;;9.45;4.97;;;;;;;1.62;100.00;93848.00;4966723;28;20046;-68
2022/11/17 02:36:37;;;;;;;7.93;4.60;;;;;;;1.62;100.00;93837.63;4970628;28;20097;-69
2022/11/17 02:39:17;;;;;;;12.52;4.80;;;;;;;1.65;100.00;93837.13;4970721;28;20046;-69
2022/11/17 02:41:51;;;;;;;9.00;5.00;;;;;;;1.56;100.00;93842.78;4971141;28;20390;-70
2022/11/17 02:44:40;;;;;;;10.25;5.40;;;;;;;1.70;100.00;93840.53;4956743;28;20070;-69
2022/11/17 02:47:14;;;;;;;11.90;4.30;;;;;;;1.81;100.00;93841.34;4967311;28;20101;-69
2022/11/17 02:49:41;;;;;;;;;;;;;;;1.88;100.00;93839.28;4971422;28;20039;-70
2022/11/17 02:52:08;;;;;;;9.50;5.28;;;;;;;1.96;100.00;93832.03;4963434;28;20422;-70
2022/11/17 02:54:34;;;;;;;10.05;4.43;;;;;;;1.93;100.00;93829.97;4968319;28;20050;-69
2022/11/17 02:57:00;;;;;;;10.10;4.70;;;;;;;1.92;100.00;93823.22;4968991;28;20038;-70
2022/11/17 02:59:31;;;;;;;11.15;4.90;;;;;;;1.89;100.00;93814.88;4966115;28;20058;-71
2022/11/17 03:01:59;;;;;;;13.43;5.40;;;;;;;1.93;100.00;93811.81;4951958;28;20039;-71
2022/11/17 03:04:53;;;;;;;10.10;5.18;;;;;;;1.90;100.00;93819.03;4959470;28;20050;-71
2022/11/17 03:07:27;;;;;;;11.50;4.25;;;;;;;1.96;100.00;93821.66;4971408;28;20559;-71
2022/11/17 03:10:13;;;;;;;8.05;3.92;;;;;;;2.10;100.00;93812.34;4970258;28;20452;-71
2022/11/17 03:12:48;;;;;;;8.95;4.20;;;;;;;2.15;100.00;93809.75;4968052;28;20043;-72
2022/11/17 03:15:39;;;;;;;10.27;4.00;;;;;;;2.19;100.00;93805.59;4966658;28;20047;-72
2022/11/17 03:18:52;;;;;;;6.65;3.72;;;;;;;2.25;100.00;93798.59;4970573;28;20035;-71
2022/11/17 03:21:31;;;;;;;6.88;3.83;;;;;;;2.30;100.00;93790.81;4929962;29;20102;-72
2022/11/17 03:24:06;;;;;;;6.45;3.40;;;;;;;2.28;100.00;93786.94;4966232;28;20054;-72
2022/11/17 03:26:50;;;;;;;8.40;3.30;;;;;;;2.23;100.00;93791.06;4959230;28;20599;-71
2022/11/17 03:29:20;;;;;;;7.27;3.30;;;;;;;2.18;100.00;93783.28;4973587;28;20045;-71
2022/11/17 03:31:47;;;;;;;5.60;3.05;;;;;;;2.15;100.00;93783.78;4974597;28;20041;-71
2022/11/17 03:34:17;;;;;;;8.13;3.38;;;;;;;1.99;100.00;93779.63;4964977;28;20047;-70
2022/11/17 03:36:50;;;;;;;7.68;3.30;;;;;;;1.94;100.00;93771.84;4971542;28;20049;-71
2022/11/17 03:39:26;;;;;;;6.03;3.00;;;;;;;1.96;100.00;93777.56;4973895;28;20043;-71
2022/11/17 03:41:57;;;;;;;9.98;3.08;;;;;;;1.87;100.00;93772.09;4969654;28;20105;-71
2022/11/17 03:44:25;;;;;;;6.95;3.40;;;;;;;1.86;100.00;93781.69;4970192;28;20101;-71
2022/11/17 03:46:54;;;;;;;7.13;3.50;;;;;;;1.85;100.00;93769.75;4973175;28;20043;-71
2022/11/17 03:49:35;;;;;;;6.38;3.40;;;;;;;1.90;100.00;93774.19;4969480;28;20051;-71
2022/11/17 03:52:02;;;;;;;6.90;3.75;;;;;;;1.85;100.00;93774.16;4967967;28;20043;-71
2022/11/17 03:54:28;;;;;;;7.35;3.30;;;;;;;1.93;100.00;93775.50;4973650;28;20054;-71
2022/11/17 03:57:01;;;;;;;6.95;3.50;;;;;;;1.93;100.00;93765.09;4971566;28;20046;-71
2022/11/17 03:59:29;;;;;;;6.60;3.33;;;;;;;1.99;100.00;93749.28;4969571;28;20089;-70
2022/11/17 04:01:55;;;;;;;8.40;3.72;;;;;;;2.01;100.00;93752.41;4973403;28;20043;-72
2022/11/17 04:04:21;;;;;;;6.18;3.17;;;;;;;2.08;100.00;93752.13;4972234;28;20042;-70
2022/11/17 04:06:50;;;;;;;6.47;3.13;;;;;;;2.17;100.00;93737.63;4974648;28;20485;-71
2022/11/17 04:09:16;;;;;;;9.02;3.38;;;;;;;2.20;100.00;93734.50;4965193;28;20042;-70
2022/11/17 04:17:09;;;;;;;8.65;2.88;;;;;;;2.37;100.00;93723.06;4967705;28;20043;-71
2022/11/17 04:19:34;;;;;;;7.78;2.88;;;;;;;2.43;100.00;93724.63;4972761;28;20043;-70
2022/11/17 04:22:00;;;;;;;5.82;3.00;;;;;;;2.44;100.00;93728.75;4970865;28;20042;-70
2022/11/17 04:24:25;;;;;;;4.63;2.53;;;;;;;2.52;100.00;93720.44;4973408;28;20038;-71
2022/11/17 04:29:35;;;;;;;5.53;2.90;;;;;;;2.66;100.00;93725.88;4972502;28;20039;-71
2022/11/17 04:32:01;;;;;;;7.03;2.63;;;;;;;2.66;100.00;93719.88;4973043;28;20039;-71
2022/11/17 04:34:26;;;;;;;7.38;2.88;;;;;;;2.75;100.00;93718.31;4966099;28;20413;-72
2022/11/17 04:36:52;;;;;;;3.70;2.30;;;;;;;2.81;100.00;93719.84;4970407;28;20046;-71
2022/11/17 04:39:17;;;;;;;4.57;2.42;;;;;;;2.82;100.00;93713.63;4960845;28;20038;-72
2022/11/17 04:41:52;;;;;;;4.55;2.50;;;;;;;2.88;100.00;93719.59;4973019;28;20067;-72
2022/11/17 04:44:22;;;;;;;5.57;2.28;;;;;;;2.94;100.00;93721.91;4962611;28;20050;-72
2022/11/17 04:46:48;;;;;;;4.95;2.45;;;;;;;2.95;100.00;93713.06;4957061;28;20055;-71
2022/11/17 04:49:15;;;;;;;7.80;2.78;;;;;;;2.95;100.00;93713.06;4967643;28;20608;-71
2022/11/17 04:51:41;;;;;;;3.67;2.10;;;;;;;3.01;100.00;93715.66;4964819;28;20453;-72
2022/11/17 04:54:08;;;;;;;7.60;3.17;;;;;;;2.94;100.00;93710.72;4969290;28;20039;-72
2022/11/17 04:56:35;;;;;;;4.47;2.40;;;;;;;2.90;100.00;93705.31;4971376;28;20460;-72
2022/11/17 04:59:00;;;;;;;5.30;2.70;;;;;;;2.90;100.00;93710.50;4965348;28;20039;-72
2022/11/17 05:01:27;;;;;;;6.20;2.78;;;;;;;2.88;100.00;93711.78;4967520;28;20042;-71
2022/11/17 05:03:58;;;;;;;5.60;2.75;;;;;;;2.89;100.00;93708.94;4971987;28;20039;-72
2022/11/17 05:06:30;;;;;;;5.43;2.50;;;;;;;2.90;100.00;93700.09;4972135;28;20780;-72
2022/11/17 05:08:57;;;;;;;5.45;2.70;;;;;;;2.87;100.00;93703.22;4970454;28;20094;-72
2022/11/17 05:14:12;;;;;;;4.97;2.72;;;;;;;2.95;100.00;93701.91;4942394;28;20134;-72
2022/11/17 05:19:25;;;;;;;5.75;2.92;;;;;;;3.02;100.00;93712.03;4970947;28;20046;-72
2022/11/17 05:21:51;;;;;;;5.88;2.70;;;;;;;3.02;100.00;93712.78;4971734;28;20072;-72
2022/11/17 05:24:17;;;;;;;10.13;3.15;;;;;;;3.09;100.00;93725.50;4972113;28;20042;-72
2022/11/17 05:26:44;;;;;;;7.88;3.40;;;;;;;3.16;100.00;93728.59;4968265;28;20043;-72
2022/11/17 05:29:11;;;;;;;9.10;3.17;;;;;;;3.22;100.00;93717.13;4967774;28;20042;-72
2022/11/17 05:31:37;;;;;;;5.90;2.92;;;;;;;3.20;100.00;93721.81;4971770;28;20401;-72
2022/11/17 05:34:05;;;;;;;8.00;2.83;;;;;;;3.26;100.00;93738.16;4962885;28;20039;-72
2022/11/17 05:36:32;;;;;;;7.57;3.05;;;;;;;3.27;100.00;93730.09;4971497;28;20420;-71
2022/11/17 05:38:57;;;;;;;9.77;4.93;;;;;;;3.30;100.00;93759.97;4968637;28;20126;-71
2022/11/17 05:41:24;;;;;;;7.97;3.28;;;;;;;3.26;100.00;93775.34;4970403;28;20456;-71
2022/11/17 05:43:50;;;;;;;12.35;6.05;;;;;;;3.35;100.00;93777.38;4957873;28;20390;-71
2022/11/17 05:46:18;;;;;;;8.85;4.60;;;;;;;3.37;100.00;93775.31;4971448;28;20047;-71
2022/11/17 05:48:45;;;;;;;6.60;3.55;;;;;;;3.33;100.00;93792.47;4970178;28;20049;-71
2022/11/17 05:51:11;;;;;;;7.80;3.55;;;;;;;3.43;100.00;93800.25;4962988;28;20049;-72
2022/11/17 05:53:36;;;;;;;6.13;3.42;;;;;;;3.39;100.00;93768.81;4971912;28;20039;-72
2022/11/17 05:56:41;;;;;;;7.45;3.70;;;;;;;3.38;100.00;93787.28;4966122;28;20042;-71
2022/11/17 05:59:12;;;;;;;7.72;3.40;;;;;;;3.49;100.00;93788.75;4960206;28;20059;-71
2022/11/17 06:01:42;;;;;;;7.60;3.72;;;;;;;3.56;100.00;93794.47;4966458;28;20457;-71
2022/11/17 06:04:09;;;;;;;8.80;3.70;;;;;;;3.57;100.00;93790.81;4971804;28;20042;-71
2022/11/17 06:06:36;;;;;;;8.32;4.13;;;;;;;3.54;100.00;93801.00;4964042;28;20100;-69
2022/11/17 06:09:02;;;;;;;6.97;3.83;;;;;;;3.60;100.00;93813.69;4971996;28;20310;-68
2022/11/17 06:11:28;;;;;;;8.57;3.17;;;;;;;3.63;100.00;93820.97;4970433;28;20501;-68
2022/11/17 06:13:53;;;;;;;11.68;3.90;;;;;;;3.73;100.00;93814.16;4968978;28;20046;-68
2022/11/17 06:16:24;;;;;;;7.97;4.10;;;;;;;3.71;100.00;93801.44;4970013;28;20069;-70
2022/11/17 06:19:00;;;;;;;5.90;3.28;;;;;;;3.70;100.00;93804.31;4965425;28;20046;-70
2022/11/17 06:21:25;;;;;;;6.68;3.17;;;;;;;3.72;100.00;93802.19;4977059;28;20039;-70
2022/11/17 06:23:51;;;;;;;7.85;3.30;;;;;;;3.73;100.00;93803.75;4980471;28;20046;-69
2022/11/17 06:26:17;;;;;;;6.72;3.60;;;;;;;3.76;100.00;93795.41;4969465;28;20062;-69
2022/11/17 06:28:46;;;;;;;10.38;4.57;;;;;;;3.73;100.00;93790.75;4970312;28;20047;-69
2022/11/17 06:31:13;;;;;;;41.72;14.85;;;;;;;3.66;100.00;93787.66;4972504;28;20038;-68
2022/11/17 06:33:39;;;;;;;32.72;11.93;;;;;;;3.69;100.00;93776.72;4974261;28;20046;-69
2022/11/17 06:36:06;;;;;;;14.45;5.38;;;;;;;3.54;100.00;93765.34;4975816;28;20043;-69
2022/11/17 06:38:34;;;;;;;11.18;4.40;;;;;;;3.61;100.00;93745.03;4976841;28;20034;-69
2022/11/17 06:41:04;;;;;;;11.63;4.50;;;;;;;3.63;100.00;93742.16;4978402;28;20039;-71
2022/11/17 06:43:31;;;;;;;9.98;4.13;;;;;;;3.67;100.00;93737.97;4977886;28;20079;-70
2022/11/17 06:46:02;;;;;;;13.70;5.68;;;;;;;3.69;100.00;93746.28;4964070;28;20105;-69
2022/11/17 06:48:27;;;;;;;19.95;8.38;;;;;;;3.75;100.00;93754.81;4958919;28;20051;-70
2022/11/17 06:50:54;;;;;;;18.65;7.45;;;;;;;3.77;100.00;93757.94;4972497;28;20113;-69
2022/11/17 06:53:21;;;;;;;11.05;5.18;;;;;;;3.95;100.00;93754.72;4971276;28;20509;-69
2022/11/17 06:56:06;;;;;;;12.98;5.05;;;;;;;3.99;100.00;93763.56;4968547;28;20408;-70
2022/11/17 06:58:32;;;;;;;14.23;6.35;;;;;;;4.09;100.00;93769.72;4965143;28;20054;-72
2022/11/17 07:01:09;;;;;;;11.15;4.60;;;;;;;4.13;100.00;93760.31;4971638;28;20097;-75
2022/11/17 07:03:36;;;;;;;12.65;5.80;;;;;;;4.25;100.00;93773.78;4962710;28;20047;-70
2022/11/17 07:06:04;;;;;;;14.98;5.15;;;;;;;4.21;100.00;93777.97;4973859;28;20046;-71
2022/11/17 07:08:30;;;;;;;7.60;3.80;;;;;;;4.31;100.00;93783.09;4973820;28;20113;-72
2022/11/17 07:11:01;;;;;;;10.98;4.45;;;;;;;4.27;100.00;93770.91;4975008;28;20051;-70
2022/11/17 07:13:27;;;;;;;10.60;4.28;;;;;;;4.24;100.00;93767.03;4971872;28;20063;-69
2022/11/17 07:15:53;;;;;;;10.23;4.68;;;;;;;4.20;100.00;93768.59;4974578;28;20038;-70
2022/11/17 07:18:19;;;;;;;10.52;3.83;;;;;;;4.18;100.00;93782.94;4974354;28;20050;-70
2022/11/17 07:20:46;;;;;;;8.50;3.97;;;;;;;4.19;100.00;93795.69;4974358;28;20050;-70
2022/11/17 07:23:12;;;;;;;11.05;4.22;;;;;;;4.26;100.00;93806.56;4971550;28;20051;-70
2022/11/17 07:25:38;;;;;;;13.98;4.10;;;;;;;4.29;100.00;93806.03;4971794;28;20047;-69
2022/11/17 07:28:03;;;;;;;7.93;4.00;;;;;;;4.25;100.00;93792.00;4972953;28;20050;-70
2022/11/17 07:30:29;;;;;;;10.93;4.10;;;;;;;4.29;100.00;93793.00;4973730;28;20043;-70
2022/11/17 07:32:57;;;;;;;12.98;4.50;;;;;;;4.28;100.00;93793.28;4967341;28;20051;-69
2022/11/17 07:35:23;;;;;;;10.55;4.43;;;;;;;4.28;100.00;93799.28;4961723;28;20038;-69
2022/11/17 07:37:48;;;;;;;10.57;4.35;;;;;;;4.37;100.00;93816.91;4970853;28;20043;-69
2022/11/17 07:40:14;;;;;;;10.02;4.80;;;;;;;4.37;100.00;93822.13;4974032;28;20109;-69
2022/11/17 07:42:40;;;;;;;12.52;4.88;;;;;;;4.45;100.00;93811.13;4970842;28;20055;-70
2022/11/17 07:45:06;;;;;;;12.18;5.30;;;;;;;4.47;100.00;93827.28;4973272;28;20039;-68
2022/11/17 07:47:32;;;;;;;13.70;5.50;;;;;;;4.51;100.00;93828.28;4973641;28;20290;-69
2022/11/17 07:49:57;;;;;;;32.72;6.05;;;;;;;4.57;100.00;93815.97;4973849;28;20039;-69
2022/11/17 07:52:23;;;;;;;18.50;7.03;;;;;;;4.54;100.00;93812.13;4969596;28;20495;-69
2022/11/17 07:54:48;;;;;;;25.30;8.32;;;;;;;4.60;100.00;93800.59;4970216;28;20050;-69
2022/11/17 07:57:14;;;;;;;16.70;6.57;;;;;;;4.70;100.00;93804.94;4972102;28;20043;-69
2022/11/17 07:59:39;;;;;;;14.25;5.82;;;;;;;4.73;100.00;93808.84;4973157;28;20058;-69
2022/11/17 08:02:05;;;;;;;12.38;5.88;;;;;;;4.64;100.00;93800.81;4969267;28;20101;-69
2022/11/17 08:04:30;;;;;;;11.05;5.00;;;;;;;4.73;100.00;93806.25;4969421;28;20413;-69
2022/11/17 08:06:56;;;;;;;10.88;4.82;;;;;;;4.72;100.00;93802.06;4972582;28;20101;-70
2022/11/17 08:09:22;;;;;;;12.05;4.43;;;;;;;4.78;100.00;93816.59;4973359;28;20201;-70
2022/11/17 08:11:47;;;;;;;13.88;4.80;;;;;;;4.75;100.00;93801.53;4967816;28;20050;-69
2022/11/17 08:14:13;;;;;;;10.35;3.95;;;;;;;4.83;100.00;93813.97;4972530;28;20508;-70
2022/11/17 08:16:38;;;;;;;13.65;4.57;;;;;;;4.89;100.00;93833.72;4973076;28;20510;-69
2022/11/17 08:19:05;;;;;;;8.30;4.13;;;;;;;4.91;100.00;93842.03;4971909;28;20054;-69
2022/11/17 08:21:30;;;;;;;11.43;4.10;;;;;;;4.95;100.00;93835.22;4973461;28;20053;-69
2022/11/17 08:23:56;;;;;;;9.48;4.07;;;;;;;4.95;100.00;93845.66;4970090;28;20051;-69
2022/11/17 08:26:24;;;;;;;9.82;3.97;;;;;;;5.01;100.00;93851.59;4965043;28;20054;-69
2022/11/17 08:28:50;;;;;;;11.65;4.03;;;;;;;5.07;100.00;93873.97;4954731;28;20107;-69
2022/11/17 08:31:15;;;;;;;12.35;4.45;;;;;;;5.11;100.00;93882.03;4967283;28;20043;-70
2022/11/17 08:33:41;;;;;;;10.00;4.00;;;;;;;5.15;100.00;93872.59;4974141;28;20073;-69
2022/11/17 08:36:07;;;;;;;10.25;4.30;;;;;;;5.17;100.00;93891.34;4969259;28;20043;-69
2022/11/17 08:38:33;;;;;;;10.05;4.25;;;;;;;5.21;100.00;93887.13;4975451;28;20042;-69
2022/11/17 08:41:02;;;;;;;20.35;4.53;;;;;;;5.32;100.00;93886.00;4973195;28;20062;-69
2022/11/17 08:43:28;;;;;;;11.95;4.22;;;;;;;5.38;100.00;93882.28;4969195;28;20039;-69
2022/11/17 08:45:53;;;;;;;7.57;3.33;;;;;;;5.45;100.00;93860.31;4967315;28;20121;-70
2022/11/17 08:48:19;;;;;;;10.50;4.78;;;;;;;5.46;100.00;93852.22;4971775;28;20137;-69
2022/11/17 08:50:44;;;;;;;17.17;4.88;;;;;;;5.58;100.00;93832.78;4972903;28;20050;-69
2022/11/17 08:53:13;;;;;;;11.75;5.00;;;;;;;5.75;100.00;93821.84;4977733;28;20118;-69
2022/11/17 08:55:39;;;;;;;13.77;5.35;;;;;;;5.81;100.00;93805.88;4958278;28;20134;-67
2022/11/17 08:58:04;;;;;;;9.98;4.38;;;;;;;5.86;100.00;93812.84;4970848;28;20043;-67
2022/11/17 09:00:30;;;;;;;13.35;4.40;;;;;;;6.00;100.00;93803.28;4972869;28;20054;-67
2022/11/17 09:02:55;;;;;;;10.43;4.22;;;;;;;6.15;100.00;93799.72;4970114;28;20516;-68
2022/11/17 09:05:22;;;;;;;8.30;3.80;;;;;;;6.27;100.00;93791.44;4971488;28;20051;-68
2022/11/17 09:07:47;;;;;;;5.97;3.33;;;;;;;6.61;100.00;93793.03;4968042;28;20077;-68
2022/11/17 09:10:13;;;;;;;7.22;3.88;;;;;;;6.80;100.00;93792.97;4968110;28;20047;-68
2022/11/17 09:12:39;;;;;;;7.18;3.63;;;;;;;7.16;100.00;93804.66;4972216;28;20051;-68
2022/11/17 09:15:04;;;;;;;6.75;3.40;;;;;;;7.38;100.00;93804.75;4971467;28;20051;-69
2022/11/17 09:17:30;;;;;;;8.63;3.17;;;;;;;7.43;100.00;93803.91;4971618;28;20065;-68
2022/11/17 09:19:56;;;;;;;7.05;3.50;;;;;;;7.44;100.00;93810.69;4961148;28;20047;-68
2022/11/17 09:22:21;;;;;;;7.47;3.35;;;;;;;7.59;100.00;93814.84;4972292;28;20131;-68
2022/11/17 09:24:47;;;;;;;8.65;3.10;;;;;;;7.62;100.00;93816.91;4970182;28;20049;-68
2022/11/17 09:27:13;;;;;;;12.90;3.25;;;;;;;7.91;100.00;93813.19;4962303;28;20050;-68
2022/11/17 09:29:38;;;;;;;7.75;3.53;;;;;;;8.07;100.00;93811.78;4971369;28;20055;-70
2022/11/17 09:32:04;;;;;;;8.43;3.20;;;;;;;8.93;100.00;93809.38;4961608;28;20137;-69
2022/11/17 09:34:30;;;;;;;14.80;3.20;;;;;;;10.44;100.00;93805.03;4970619;28;20413;-69
2022/11/17 09:36:55;;;;;;;6.97;3.75;;;;;;;10.81;100.00;93808.88;4968045;28;20105;-69
2022/11/17 09:39:21;;;;;;;9.35;2.85;;;;;;;11.14;100.00;93804.94;4971806;28;20121;-69
2022/11/17 09:41:55;;;;;;;9.18;2.63;;;;;;;11.98;100.00;93804.44;4972320;28;20047;-71
2022/11/17 09:44:41;;;;;;;7.43;2.72;;;;;;;12.32;100.00;93813.22;4969298;28;20066;-69
2022/11/17 09:47:25;;;;;;;9.30;2.83;;;;;;;12.29;100.00;93812.75;4967681;28;20039;-68
2022/11/17 09:50:02;;;;;;;5.67;2.63;;;;;;;12.44;100.00;93805.38;4971870;28;20039;-69
2022/11/17 09:53:06;;;;;;;6.50;2.40;;;;;;;12.37;100.00;93805.09;4970172;28;20098;-70
2022/11/17 09:55:39;;;;;;;9.57;3.10;;;;;;;12.30;100.00;93800.38;4967182;28;20043;-68
2022/11/17 09:58:07;;;;;;;7.35;3.28;;;;;;;11.05;100.00;93802.34;4969694;28;20385;-67
2022/11/17 10:00:35;;;;;;;9.57;3.75;;;;;;;10.21;100.00;93802.50;4971185;28;20117;-68
2022/11/17 10:03:01;;;;;;;7.93;2.88;;;;;;;10.14;100.00;93797.72;4971347;28;20049;-67
2022/11/17 10:05:33;;;;;;;11.23;3.25;;;;;;;10.16;100.00;93807.94;4954564;28;20051;-68
2022/11/17 10:08:07;;;;;;;16.90;5.85;;;;;;;10.91;100.00;93808.53;4967937;28;20042;-68
2022/11/17 10:10:45;;;;;;;12.65;3.88;;;;;;;11.59;100.00;93805.25;4971565;28;20054;-68
2022/11/17 10:13:23;;;;;;;12.48;5.90;;;;;;;12.11;100.00;93812.13;4964383;28;20505;-68
2022/11/17 10:15:54;;;;;;;7.97;3.60;;;;;;;11.15;100.00;93812.53;4970296;28;20508;-68
2022/11/17 10:18:20;;;;;;;8.60;3.53;;;;;;;11.15;100.00;93812.53;4966992;28;20394;-69
2022/11/17 10:20:45;;;;;;;10.85;3.67;;;;;;;10.73;100.00;93812.28;4971301;28;20035;-67
2022/11/17 10:23:17;;;;;;;7.43;3.53;;;;;;;10.36;100.00;93809.22;4969922;28;20057;-68
2022/11/17 10:25:55;;;;;;;7.15;2.83;;;;;;;10.15;100.00;93809.00;4963295;28;20051;-68
2022/11/17 10:28:25;;;;;;;6.28;2.63;;;;;;;10.28;100.00;93813.34;4970795;28;20055;-68
2022/11/17 10:30:53;;;;;;;5.32;2.30;;;;;;;10.20;100.00;93812.25;4963899;28;20126;-67
2022/11/17 10:33:32;;;;;;;9.15;3.80;;;;;;;9.97;100.00;93813.44;4967917;28;20042;-69
2022/11/17 10:35:58;;;;;;;10.27;3.88;;;;;;;10.07;100.00;93797.41;4970807;28;20046;-68
2022/11/17 10:38:27;;;;;;;7.75;2.70;;;;;;;10.13;100.00;93811.94;4970591;28;20042;-68
2022/11/17 10:40:54;;;;;;;4.68;2.22;;;;;;;10.37;100.00;93810.75;4958447;28;20107;-67
2022/11/17 10:43:26;;;;;;;9.23;2.25;;;;;;;10.32;100.00;93808.25;4970114;28;20512;-68
2022/11/17 10:45:57;;;;;;;5.50;2.20;;;;;;;10.47;100.00;93814.94;4970369;28;20061;-68
2022/11/17 10:48:31;;;;;;;3.40;2.13;;;;;;;10.36;100.00;93809.22;4963840;28;20035;-70
2022/11/17 10:51:00;;;;;;;7.75;2.30;;;;;;;10.30;100.00;93815.66;4963698;28;20464;-68
2022/11/17 10:53:27;;;;;;;4.57;2.25;;;;;;;10.20;100.00;93817.53;4971169;28;20058;-67
2022/11/17 10:56:01;;;;;;;6.63;2.20;;;;;;;10.33;100.00;93820.28;4962875;28;20050;-68
2022/11/17 10:58:29;;;;;;;3.80;1.88;;;;;;;10.62;100.00;93808.44;4971221;28;20050;-68
2022/11/17 11:00:57;;;;;;;3.60;2.00;;;;;;;11.72;100.00;93807.97;4974542;28;20046;-68
2022/11/17 11:03:27;;;;;;;4.53;1.75;;;;;;;11.32;100.00;93806.44;4971471;28;20039;-69
2022/11/17 11:06:19;;;;;;;5.72;2.13;;;;;;;11.23;100.00;93803.84;4967440;28;20051;-70
2022/11/17 11:09:12;;;;;;;3.50;1.80;;;;;;;11.73;100.00;93804.25;4975181;28;20053;-69
2022/11/17 11:12:01;;;;;;;3.70;1.90;;;;;;;11.09;100.00;93805.88;4970572;28;20047;-68
2022/11/17 11:14:39;;;;;;;3.13;1.60;;;;;;;11.30;100.00;93797.31;4964726;28;20057;-71
2022/11/17 11:17:13;;;;;;;4.85;2.38;;;;;;;11.33;100.00;93797.44;4974427;28;20049;-71
2022/11/17 11:19:42;;;;;;;5.63;2.37;;;;;;;11.48;100.00;93804.06;4975397;28;20425;-69
2022/11/17 11:22:33;;;;;;;3.95;1.73;;;;;;;11.89;100.00;93802.59;4973264;28;20067;-68
2022/11/17 11:25:25;;;;;;;4.10;1.80;;;;;;;11.70;100.00;93810.16;4964262;28;20130;-69
2022/11/17 11:28:16;;;;;;;3.50;1.80;;;;;;;11.82;100.00;93804.97;4975508;28;20054;-70
2022/11/17 11:30:53;;;;;;;3.97;2.00;;;;;;;11.67;100.00;93813.44;4975235;28;20563;-72
2022/11/17 11:33:22;;;;;;;6.63;2.50;;;;;;;11.45;100.00;93812.59;4975966;28;20051;-70
2022/11/17 11:36:10;;;;;;;7.03;2.60;;;;;;;11.29;100.00;93816.81;4974713;28;20476;-71
2022/11/17 11:39:04;;;;;;;3.95;1.88;;;;;;;11.25;100.00;93822.72;4966519;28;20051;-70
2022/11/17 11:41:36;;;;;;;4.95;2.47;;;;;;;11.37;100.00;93826.56;4961454;28;20524;-69
2022/11/17 11:44:39;;;;;;;3.05;1.80;;;;;;;11.27;100.00;93820.53;4970582;28;20047;-68
2022/11/17 11:47:23;;;;;;;3.28;1.60;;;;;;;11.08;100.00;93830.66;4969865;28;20401;-68
2022/11/17 11:50:05;;;;;;;4.13;1.73;;;;;;;10.90;100.00;93822.81;4959840;28;20051;-69
2022/11/17 11:52:35;;;;;;;3.67;1.70;;;;;;;10.83;100.00;93822.50;4965570;28;20051;-69
2022/11/17 11:55:06;;;;;;;3.75;1.88;;;;;;;10.88;100.00;93808.41;4970334;28;20305;-70
2022/11/17 11:57:46;;;;;;;5.95;2.00;;;;;;;10.72;100.00;93810.75;4965430;28;20058;-69
2022/11/17 12:00:16;;;;;;;4.70;1.90;;;;;;;10.78;100.00;93809.50;4966091;28;20047;-71
2022/11/17 12:03:03;;;;;;;7.28;2.65;;;;;;;10.82;100.00;93810.41;4965451;28;20449;-69
2022/11/17 12:05:57;;;;;;;3.50;2.10;;;;;;;11.38;100.00;93799.13;4958414;28;20058;-69
2022/11/17 12:08:41;;;;;;;4.18;2.10;;;;;;;11.42;100.00;93807.94;4973470;28;20047;-69
2022/11/17 12:13:59;;;;;;;7.13;3.10;;;;;;;11.36;100.00;93811.84;4961741;28;20126;-70